sensor_id;sensor_type;location;lat;lon;timestamp;P1;durP1;ratioP1;P2;durP2;ratioP2
43837;SDS011;29493;46.516;6.638;2022-12-05T17:53:27;16.17;;;9.00;;
43837;SDS011;29493;46.516;6.638;2022-12-05T17:55:53;11.68;;;5.68;;
43837;SDS011;29493;46.516;6.638;2022-12-05T17:58:19;11.57;;;4.67;;
43837;SDS011;29493;46.516;6.638;2022-12-05T18:00:45;7.95;;;3.35;;
43837;SDS011;29493;46.516;6.638;2022-12-05T18:05:38;5.72;;;2.10;;
43837;SDS011;29493;46.516;6.638;2022-12-05T18:08:03;6.37;;;2.00;;
43837;SDS011;29493;46.516;6.638;2022-12-05T18:10:29;6.82;;;2.20;;
43837;SDS011;29493;46.516;6.638;2022-12-05T18:12:55;6.85;;;2.25;;
43837;SDS011;29493;46.516;6.638;2022-12-05T18:15:21;5.60;;;2.17;;
43837;SDS011;29493;46.516;6.638;2022-12-05T18:17:46;5.65;;;1.92;;
43837;SDS011;29493;46.516;6.638;2022-12-05T18:20:13;6.07;;;2.25;;
43837;SDS011;29493;46.516;6.638;2022-12-05T18:22:39;9.23;;;2.97;;
43837;SDS011;29493;46.516;6.638;2022-12-05T18:25:06;6.38;;;2.00;;
43837;SDS011;29493;46.516;6.638;2022-12-05T18:27:33;6.80;;;2.43;;
43837;SDS011;29493;46.516;6.638;2022-12-05T18:30:00;9.70;;;2.65;;
43837;SDS011;29493;46.516;6.638;2022-12-05T18:32:27;8.27;;;2.55;;
43837;SDS011;29493;46.516;6.638;2022-12-05T18:34:52;8.63;;;2.78;;
43837;SDS011;29493;46.516;6.638;2022-12-05T18:37:18;11.70;;;2.57;;
43837;SDS011;29493;46.516;6.638;2022-12-05T18:39:44;6.05;;;2.53;;
43837;SDS011;29493;46.516;6.638;2022-12-05T18:42:10;6.53;;;2.40;;
43837;SDS011;29493;46.516;6.638;2022-12-05T18:44:36;9.95;;;2.63;;
43837;SDS011;29493;46.516;6.638;2022-12-05T18:47:02;12.90;;;2.60;;
43837;SDS011;29493;46.516;6.638;2022-12-05T18:49:28;13.23;;;2.75;;
43837;SDS011;29493;46.516;6.638;2022-12-05T18:51:54;7.28;;;2.83;;
43837;SDS011;29493;46.516;6.638;2022-12-05T18:54:20;10.10;;;3.03;;
43837;SDS011;29493;46.516;6.638;2022-12-05T18:56:45;6.27;;;2.50;;
43837;SDS011;29493;46.516;6.638;2022-12-05T18:59:15;9.52;;;2.45;;
43837;SDS011;29493;46.516;6.638;2022-12-05T19:01:42;5.95;;;2.55;;
43837;SDS011;29493;46.516;6.638;2022-12-05T19:04:10;9.00;;;2.22;;
43837;SDS011;29493;46.516;6.638;2022-12-05T19:06:37;8.55;;;2.50;;
43837;SDS011;29493;46.516;6.638;2022-12-05T19:09:05;7.55;;;2.80;;
43837;SDS011;29493;46.516;6.638;2022-12-05T19:11:34;6.13;;;2.65;;
43837;SDS011;29493;46.516;6.638;2022-12-05T19:14:00;8.02;;;2.55;;
43837;SDS011;29493;46.516;6.638;2022-12-05T19:16:28;8.90;;;3.17;;
43837;SDS011;29493;46.516;6.638;2022-12-05T19:18:56;6.80;;;2.55;;
43837;SDS011;29493;46.516;6.638;2022-12-05T19:21:24;8.68;;;2.60;;
43837;SDS011;29493;46.516;6.638;2022-12-05T19:23:52;7.07;;;2.33;;
43837;SDS011;29493;46.516;6.638;2022-12-05T19:26:19;9.52;;;2.70;;
43837;SDS011;29493;46.516;6.638;2022-12-05T19:28:45;9.13;;;2.53;;
43837;SDS011;29493;46.516;6.638;2022-12-05T19:31:19;7.03;;;2.40;;
43837;SDS011;29493;46.516;6.638;2022-12-05T19:33:47;5.22;;;2.45;;
43837;SDS011;29493;46.516;6.638;2022-12-05T19:36:16;8.63;;;2.80;;
43837;SDS011;29493;46.516;6.638;2022-12-05T19:38:45;8.07;;;2.58;;
43837;SDS011;29493;46.516;6.638;2022-12-05T19:41:13;7.00;;;2.50;;
43837;SDS011;29493;46.516;6.638;2022-12-05T19:43:40;7.43;;;2.50;;
43837;SDS011;29493;46.516;6.638;2022-12-05T19:46:09;8.93;;;2.70;;
43837;SDS011;29493;46.516;6.638;2022-12-05T19:48:37;7.93;;;2.30;;
43837;SDS011;29493;46.516;6.638;2022-12-05T19:51:03;10.02;;;2.50;;
43837;SDS011;29493;46.516;6.638;2022-12-05T19:53:30;6.25;;;2.80;;
43837;SDS011;29493;46.516;6.638;2022-12-05T19:56:10;8.85;;;2.40;;
43837;SDS011;29493;46.516;6.638;2022-12-05T19:58:38;7.88;;;2.50;;
43837;SDS011;29493;46.516;6.638;2022-12-05T20:01:05;6.50;;;2.70;;
43837;SDS011;29493;46.516;6.638;2022-12-05T20:03:35;6.55;;;2.30;;
43837;SDS011;29493;46.516;6.638;2022-12-05T20:06:01;6.05;;;2.58;;
43837;SDS011;29493;46.516;6.638;2022-12-05T20:08:29;5.72;;;2.55;;
43837;SDS011;29493;46.516;6.638;2022-12-05T20:10:55;6.72;;;2.60;;
43837;SDS011;29493;46.516;6.638;2022-12-05T20:13:21;7.03;;;2.80;;
43837;SDS011;29493;46.516;6.638;2022-12-05T20:15:47;5.70;;;2.45;;
43837;SDS011;29493;46.516;6.638;2022-12-05T20:18:13;5.43;;;2.80;;
43837;SDS011;29493;46.516;6.638;2022-12-05T20:20:40;5.78;;;2.50;;
43837;SDS011;29493;46.516;6.638;2022-12-05T20:23:05;6.13;;;2.50;;
43837;SDS011;29493;46.516;6.638;2022-12-05T20:25:35;6.57;;;2.40;;
43837;SDS011;29493;46.516;6.638;2022-12-05T20:28:02;7.15;;;2.55;;
43837;SDS011;29493;46.516;6.638;2022-12-05T20:30:30;8.25;;;2.88;;
43837;SDS011;29493;46.516;6.638;2022-12-05T20:32:57;7.03;;;2.70;;
43837;SDS011;29493;46.516;6.638;2022-12-05T20:35:23;8.60;;;2.60;;
43837;SDS011;29493;46.516;6.638;2022-12-05T20:37:48;7.80;;;2.70;;
43837;SDS011;29493;46.516;6.638;2022-12-05T20:40:14;5.68;;;2.20;;
43837;SDS011;29493;46.516;6.638;2022-12-05T20:42:40;4.50;;;2.30;;
43837;SDS011;29493;46.516;6.638;2022-12-05T20:45:06;6.80;;;2.72;;
43837;SDS011;29493;46.516;6.638;2022-12-05T20:47:31;5.70;;;2.30;;
43837;SDS011;29493;46.516;6.638;2022-12-05T20:49:57;6.07;;;2.30;;
43837;SDS011;29493;46.516;6.638;2022-12-05T20:52:23;5.93;;;2.40;;
43837;SDS011;29493;46.516;6.638;2022-12-05T20:54:49;5.80;;;2.50;;
43837;SDS011;29493;46.516;6.638;2022-12-05T20:57:15;6.07;;;2.35;;
43837;SDS011;29493;46.516;6.638;2022-12-05T20:59:41;7.87;;;2.40;;
43837;SDS011;29493;46.516;6.638;2022-12-05T21:02:06;5.28;;;2.38;;
43837;SDS011;29493;46.516;6.638;2022-12-05T21:04:32;5.28;;;2.28;;
43837;SDS011;29493;46.516;6.638;2022-12-05T21:07:03;8.82;;;2.53;;
43837;SDS011;29493;46.516;6.638;2022-12-05T21:09:29;5.97;;;2.50;;
43837;SDS011;29493;46.516;6.638;2022-12-05T21:11:56;6.60;;;2.40;;
43837;SDS011;29493;46.516;6.638;2022-12-05T21:14:22;6.93;;;2.53;;
43837;SDS011;29493;46.516;6.638;2022-12-05T21:16:48;6.65;;;2.40;;
43837;SDS011;29493;46.516;6.638;2022-12-05T21:19:16;6.65;;;2.42;;
43837;SDS011;29493;46.516;6.638;2022-12-05T21:21:43;4.78;;;2.38;;
43837;SDS011;29493;46.516;6.638;2022-12-05T21:24:10;5.68;;;2.22;;
43837;SDS011;29493;46.516;6.638;2022-12-05T21:26:37;6.13;;;2.28;;
43837;SDS011;29493;46.516;6.638;2022-12-05T21:29:07;6.55;;;2.58;;
43837;SDS011;29493;46.516;6.638;2022-12-05T21:31:34;5.28;;;2.47;;
43837;SDS011;29493;46.516;6.638;2022-12-05T21:34:06;4.60;;;2.25;;
43837;SDS011;29493;46.516;6.638;2022-12-05T21:36:39;5.60;;;2.20;;
43837;SDS011;29493;46.516;6.638;2022-12-05T21:39:05;4.30;;;2.17;;
43837;SDS011;29493;46.516;6.638;2022-12-05T21:41:31;4.20;;;2.13;;
43837;SDS011;29493;46.516;6.638;2022-12-05T21:43:58;5.28;;;1.92;;
43837;SDS011;29493;46.516;6.638;2022-12-05T21:46:24;4.38;;;2.10;;
43837;SDS011;29493;46.516;6.638;2022-12-05T21:48:51;5.13;;;2.45;;
43837;SDS011;29493;46.516;6.638;2022-12-05T21:51:17;4.63;;;2.00;;
43837;SDS011;29493;46.516;6.638;2022-12-05T21:53:43;4.88;;;2.40;;
43837;SDS011;29493;46.516;6.638;2022-12-05T21:56:10;6.38;;;2.35;;
43837;SDS011;29493;46.516;6.638;2022-12-05T21:58:38;4.18;;;1.88;;
43837;SDS011;29493;46.516;6.638;2022-12-05T22:01:04;4.78;;;2.10;;
43837;SDS011;29493;46.516;6.638;2022-12-05T22:03:31;5.22;;;2.20;;
43837;SDS011;29493;46.516;6.638;2022-12-05T22:06:04;6.45;;;2.17;;
43837;SDS011;29493;46.516;6.638;2022-12-05T22:08:31;5.32;;;2.10;;
43837;SDS011;29493;46.516;6.638;2022-12-05T22:13:32;4.20;;;2.03;;
43837;SDS011;29493;46.516;6.638;2022-12-05T22:15:58;5.25;;;2.20;;
43837;SDS011;29493;46.516;6.638;2022-12-05T22:18:26;4.57;;;2.10;;
43837;SDS011;29493;46.516;6.638;2022-12-05T22:20:58;6.97;;;2.30;;
43837;SDS011;29493;46.516;6.638;2022-12-05T22:23:30;5.93;;;2.30;;
43837;SDS011;29493;46.516;6.638;2022-12-05T22:26:03;6.40;;;2.33;;
43837;SDS011;29493;46.516;6.638;2022-12-05T22:28:34;5.15;;;1.88;;
43837;SDS011;29493;46.516;6.638;2022-12-05T22:31:02;4.55;;;2.05;;
43837;SDS011;29493;46.516;6.638;2022-12-05T22:33:30;5.32;;;2.25;;
43837;SDS011;29493;46.516;6.638;2022-12-05T22:35:57;4.67;;;2.10;;
43837;SDS011;29493;46.516;6.638;2022-12-05T22:38:25;5.75;;;2.30;;
43837;SDS011;29493;46.516;6.638;2022-12-05T22:40:53;4.75;;;2.00;;
